KVSF/VSF METAR and TAF weather

Enter ICAO airport designator
Station Type Date Time Source
KVSF METAR 2022/06/28 23:54 UTC NOAA

KVSF 282354Z AUTO 33003KT 10SM CLR 22/12 A3014 RMK AO2 SLP206 T02220122 10256 20222 53005


Station Type Date Time Source
KVSF Decoded METAR 2022/06/28 23:54 UTC NOAA

HARTNESS STATE AIRPORT, VT, United States (KVSF) 43-21N 72-31W 175M
Jun 28, 2022 - 07:54 PM EDT / 2022.06.28 2354 UTC
Wind: from the NNW (330 degrees) at 3 MPH (3 KT):0
Visibility: 10 mile(s):0
Sky conditions: clear
Temperature: 72.0 F (22.2 C)
Dew Point: 54.0 F (12.2 C)
Relative Humidity: 53%
Pressure (altimeter): 30.14 in. Hg (1020 hPa)
Pressure tendency: 0.01 inches (0.5 hPa) higher than three hours ago
ob: KVSF 282354Z AUTO 33003KT 10SM CLR 22/12 A3014 RMK AO2 SLP206 T02220122 10256 20222 53005
cycle: 0

Station Type Date Time Source
KVSF TAF UTC NOAA

Error!

Example: see airport list